Terminal Aerodrome Forecast
Issued by NWS

Home | Current Version | Previous Version | Text Only | Print | Product List | Glossary On
Versions: 1 2 3 4 5 6 7 8 9 10 11 12 13 14 15 16 17 18 19 20 21
000
FTUS43 KMQT 210500
TAFSAW
TAF
KSAW 210537Z 2106/2206 01011KT 4SM -DZ OVC006
     FM211000 02009KT P6SM OVC008
     FM211200 02010KT P6SM OVC010
     FM220000 04003KT P6SM SKC
      AMD LTD TO CLD VIS AND WIND TIL 211000=

USA.gov is the U.S. government's official web portal to all federal, state and local government web resources and services.